createdAt,value
2022-12-20T00:01:20.796Z,99852.16
2022-12-20T00:04:07.827Z,99857.22
2022-12-20T00:06:55.112Z,99846.22
2022-12-20T00:09:44.142Z,99843.69
2022-12-20T00:12:31.428Z,99847.03
2022-12-20T00:15:18.636Z,99837.75
2022-12-20T00:18:06.340Z,99835.22
2022-12-20T00:20:59.795Z,99820.00
2022-12-20T00:23:47.227Z,99820.00
2022-12-20T00:26:38.091Z,99812.34
2022-12-20T00:29:25.156Z,99812.34
2022-12-20T00:32:12.409Z,99817.28
2022-12-20T00:34:59.632Z,99819.81
2022-12-20T00:37:46.769Z,99816.47
2022-12-20T00:40:34.239Z,99810.56
2022-12-20T00:43:22.707Z,99799.59
2022-12-20T00:46:12.328Z,99804.59
2022-12-20T00:48:59.775Z,99805.44
2022-12-20T00:51:46.671Z,99800.38
2022-12-20T00:54:33.914Z,99799.53
2022-12-20T00:57:21.071Z,99806.31
2022-12-20T01:00:12.649Z,99816.44
2022-12-20T01:03:00.139Z,99809.63
2022-12-20T01:05:54.127Z,99813.03
2022-12-20T01:08:42.405Z,99809.63
2022-12-20T01:11:32.560Z,99813.84
2022-12-20T01:14:19.902Z,99810.50
2022-12-20T01:17:08.574Z,99807.91
2022-12-20T01:19:55.785Z,99807.84
2022-12-20T01:22:47.533Z,99810.44
2022-12-20T01:25:34.876Z,99824.81
2022-12-20T01:28:22.166Z,99827.28
2022-12-20T01:31:11.631Z,99825.63
2022-12-20T01:34:01.113Z,99814.63
2022-12-20T01:36:49.614Z,99808.72
2022-12-20T01:39:36.892Z,99799.44
2022-12-20T01:42:24.396Z,99807.03
2022-12-20T01:45:24.691Z,99803.63
2022-12-20T01:48:12.875Z,99793.50
2022-12-20T01:51:01.648Z,99791.84
2022-12-20T01:53:53.691Z,99796.03
2022-12-20T01:56:42.544Z,99790.97
2022-12-20T01:59:31.191Z,99786.66
2022-12-20T02:02:18.632Z,99780.72
2022-12-20T02:05:07.061Z,99775.59
2022-12-20T02:07:57.880Z,99776.41
2022-12-20T02:11:04.571Z,99773.03
2022-12-20T02:14:06.625Z,99778.94
2022-12-20T02:17:03.643Z,99775.56
2022-12-20T02:20:40.257Z,99761.22
2022-12-20T02:24:12.565Z,99747.72
2022-12-20T02:27:47.443Z,99742.72
2022-12-20T02:30:43.367Z,99736.84
2022-12-20T02:33:30.703Z,99741.84
2022-12-20T02:36:19.330Z,99735.91
2022-12-20T02:39:10.658Z,99735.78
2022-12-20T02:42:03.095Z,99735.72
2022-12-20T02:45:13.574Z,99723.84
2022-12-20T02:48:06.922Z,99713.72
2022-12-20T02:50:58.554Z,99712.88
2022-12-20T02:53:46.719Z,99714.53
2022-12-20T02:56:40.751Z,99709.53
2022-12-20T02:59:35.310Z,99713.72
2022-12-20T03:02:24.953Z,99712.94
2022-12-20T03:05:13.935Z,99717.94
2022-12-20T03:08:01.437Z,99714.59
2022-12-20T03:10:49.612Z,99712.88
2022-12-20T03:13:36.684Z,99707.00
2022-12-20T03:16:28.445Z,99711.19
2022-12-20T03:19:15.885Z,99700.16
2022-12-20T03:22:05.296Z,99699.34
2022-12-20T03:24:52.439Z,99696.81
2022-12-20T03:27:39.705Z,99699.34
2022-12-20T03:30:27.325Z,99692.50
2022-12-20T03:33:14.678Z,99695.03
2022-12-20T03:36:02.818Z,99693.41
2022-12-20T03:38:52.330Z,99699.28
2022-12-20T03:41:39.828Z,99700.94
2022-12-20T03:44:28.483Z,99715.28
2022-12-20T03:47:16.041Z,99712.75
2022-12-20T03:50:03.407Z,99704.25
2022-12-20T03:52:54.042Z,99700.84
2022-12-20T03:55:45.321Z,99698.25
2022-12-20T03:58:34.063Z,99691.50
2022-12-20T04:01:23.966Z,99691.44
2022-12-20T04:04:14.466Z,99697.31
2022-12-20T04:07:01.650Z,99693.91
2022-12-20T04:09:49.040Z,99690.50
2022-12-20T04:12:38.603Z,99695.56
2022-12-20T04:15:30.157Z,99694.66
2022-12-20T04:18:20.053Z,99696.31
2022-12-20T04:21:08.353Z,99687.84
2022-12-20T04:24:02.226Z,99687.84
2022-12-20T04:27:06.043Z,99682.78
2022-12-20T04:29:54.936Z,99676.00
2022-12-20T04:32:42.984Z,99684.38
2022-12-20T04:35:31.659Z,99678.47
2022-12-20T04:38:19.847Z,99664.13
2022-12-20T04:41:08.892Z,99670.00
2022-12-20T04:44:06.473Z,99667.41
2022-12-20T04:46:58.411Z,99670.84
2022-12-20T04:49:46.101Z,99669.88
2022-12-20T04:52:50.849Z,99661.41
2022-12-20T04:55:39.760Z,99667.31
2022-12-20T04:58:27.022Z,99649.59
2022-12-20T05:01:14.692Z,99647.88
2022-12-20T05:04:09.331Z,99655.41
2022-12-20T05:06:58.023Z,99648.63
2022-12-20T05:09:45.458Z,99647.75
2022-12-20T05:12:32.583Z,99646.81
2022-12-20T05:15:22.848Z,99651.06
2022-12-20T05:18:10.515Z,99651.88
2022-12-20T05:21:34.535Z,99651.88
2022-12-20T05:24:40.635Z,99651.06
2022-12-20T05:27:46.365Z,99646.88
2022-12-20T05:30:33.541Z,99660.28
2022-12-20T05:33:20.836Z,99651.81
2022-12-20T05:36:08.687Z,99651.75
2022-12-20T05:39:03.631Z,99636.53
2022-12-20T05:41:53.775Z,99638.16
2022-12-20T05:44:44.319Z,99631.38
2022-12-20T05:47:33.943Z,99636.38
2022-12-20T05:50:27.244Z,99631.31
2022-12-20T05:53:33.484Z,99631.25
2022-12-20T05:56:25.610Z,99635.44
2022-12-20T05:59:13.013Z,99624.38
2022-12-20T06:02:00.637Z,99626.06
2022-12-20T06:04:48.238Z,99604.94
2022-12-20T06:07:42.498Z,99625.13
2022-12-20T06:10:29.587Z,99620.06
2022-12-20T06:13:19.514Z,99611.59
2022-12-20T06:16:09.057Z,99625.94
2022-12-20T06:18:56.785Z,99623.38
2022-12-20T06:21:44.100Z,99620.00
2022-12-20T06:24:34.071Z,99625.00
2022-12-20T06:27:23.066Z,99619.94
2022-12-20T06:30:22.083Z,99613.19
2022-12-20T06:33:35.527Z,99618.19
2022-12-20T06:36:23.808Z,99611.41
2022-12-20T06:39:12.261Z,99613.13
2022-12-20T06:42:08.130Z,99611.41
2022-12-20T06:44:56.460Z,99612.25
2022-12-20T06:47:44.940Z,99600.44
2022-12-20T06:50:32.258Z,99594.50
2022-12-20T06:53:19.285Z,99596.13
2022-12-20T06:56:07.487Z,99596.09
2022-12-20T06:58:54.554Z,99587.66
2022-12-20T07:01:44.982Z,99588.50
2022-12-20T07:04:15.071Z,99595.19
2022-12-20T07:06:43.823Z,99591.78
2022-12-20T07:09:12.481Z,99596.03
2022-12-20T07:11:43.307Z,99594.31
2022-12-20T07:14:12.296Z,99597.66
2022-12-20T07:16:43.775Z,99604.38
2022-12-20T07:19:14.622Z,99599.31
2022-12-20T07:21:43.740Z,99603.50
2022-12-20T07:24:12.407Z,99604.31
2022-12-20T07:26:40.978Z,99612.75
2022-12-20T07:29:15.208Z,99621.97
2022-12-20T07:31:44.529Z,99621.94
2022-12-20T07:34:14.657Z,99610.97
2022-12-20T07:36:43.751Z,99600.78
2022-12-20T07:39:12.414Z,99599.88
2022-12-20T07:41:42.053Z,99598.19
2022-12-20T07:44:17.376Z,99599.75
2022-12-20T07:46:46.150Z,99604.78
2022-12-20T07:49:16.513Z,99606.34
2022-12-20T07:51:50.365Z,99606.31
2022-12-20T07:54:24.202Z,99607.94
2022-12-20T07:56:58.732Z,99606.19
2022-12-20T07:59:35.004Z,99615.47
2022-12-20T08:02:05.215Z,99603.66
2022-12-20T08:04:35.902Z,99607.84
2022-12-20T08:07:04.966Z,99607.00
2022-12-20T08:09:39.907Z,99612.00
2022-12-20T08:12:12.095Z,99607.00
2022-12-20T08:14:41.857Z,99600.22
2022-12-20T08:17:11.267Z,99582.44
2022-12-20T08:19:41.408Z,99579.97
2022-12-20T08:22:10.147Z,99583.25
2022-12-20T08:24:39.589Z,99568.84
2022-12-20T08:27:08.407Z,99579.81
2022-12-20T08:29:37.053Z,99573.88
2022-12-20T08:32:05.957Z,99589.81
2022-12-20T08:34:34.574Z,99576.28
2022-12-20T08:37:09.220Z,99566.94
2022-12-20T08:39:43.181Z,99567.78
2022-12-20T08:42:12.446Z,99577.03
2022-12-20T08:44:41.128Z,99578.69
2022-12-20T08:47:10.420Z,99563.41
2022-12-20T08:49:43.995Z,99563.34
2022-12-20T08:52:19.755Z,99563.28
2022-12-20T08:54:48.389Z,99565.75
2022-12-20T08:57:16.975Z,99552.19
2022-12-20T08:59:45.585Z,99560.56
2022-12-20T09:02:14.505Z,99568.09
2022-12-20T09:04:44.555Z,99559.59
2022-12-20T09:07:13.669Z,99559.53
2022-12-20T09:09:43.726Z,99560.34
2022-12-20T09:12:12.372Z,99546.72
2022-12-20T09:14:41.008Z,99548.38
2022-12-20T09:17:09.719Z,99531.41
2022-12-20T09:19:38.482Z,99528.81
2022-12-20T09:22:07.232Z,99529.63
2022-12-20T09:24:35.883Z,99527.00
2022-12-20T09:27:05.958Z,99536.19
2022-12-20T09:29:35.797Z,99537.84
2022-12-20T09:32:04.865Z,99530.16
2022-12-20T09:34:33.563Z,99536.06
2022-12-20T09:37:02.290Z,99528.41
2022-12-20T09:39:31.108Z,99535.09
2022-12-20T09:42:00.527Z,99525.72
2022-12-20T09:44:36.356Z,99535.00
2022-12-20T09:47:11.412Z,99522.25
2022-12-20T09:49:45.548Z,99549.22
2022-12-20T09:52:37.454Z,99534.78
2022-12-20T09:55:20.093Z,99530.44
2022-12-20T09:58:04.105Z,99528.69
2022-12-20T10:00:38.002Z,99520.94
2022-12-20T10:03:10.369Z,99524.25
2022-12-20T10:05:48.260Z,99530.88
2022-12-20T10:08:26.772Z,99521.56
2022-12-20T10:10:58.206Z,99519.72
2022-12-20T10:13:48.989Z,99522.09
2022-12-20T10:16:40.427Z,99517.72
2022-12-20T10:19:27.378Z,99517.59
2022-12-20T10:22:06.912Z,99512.38
2022-12-20T10:24:37.314Z,99510.59
2022-12-20T10:27:15.757Z,99500.22
2022-12-20T10:29:45.167Z,99504.34
2022-12-20T10:32:17.946Z,99505.09
2022-12-20T10:34:54.024Z,99498.22
2022-12-20T10:37:22.722Z,99497.28
2022-12-20T10:39:53.263Z,99499.72
2022-12-20T10:42:31.790Z,99502.16
2022-12-20T10:45:00.658Z,99499.50
2022-12-20T10:47:41.497Z,99496.00
2022-12-20T10:50:16.963Z,99492.53
2022-12-20T10:52:47.431Z,99495.78
2022-12-20T10:55:37.725Z,99491.44
2022-12-20T10:58:14.915Z,99491.38
2022-12-20T11:00:44.387Z,99484.50
2022-12-20T11:03:19.135Z,99481.81
2022-12-20T11:06:00.290Z,99472.34
2022-12-20T11:08:39.093Z,99461.22
2022-12-20T11:11:18.820Z,99452.66
2022-12-20T11:13:49.192Z,99445.75
2022-12-20T11:16:29.762Z,99446.53
2022-12-20T11:19:15.639Z,99444.72
2022-12-20T11:21:53.585Z,99442.19
2022-12-20T11:24:32.159Z,99444.59
2022-12-20T11:27:17.680Z,99442.06
2022-12-20T11:30:18.966Z,99427.56
2022-12-20T11:33:16.931Z,99421.59
2022-12-20T11:35:57.204Z,99414.78
2022-12-20T11:38:41.762Z,99422.31
2022-12-20T11:41:21.258Z,99415.53
2022-12-20T11:47:33.715Z,99406.19
2022-12-20T11:50:20.129Z,99400.22
2022-12-20T11:52:54.311Z,99394.25
2022-12-20T11:55:29.813Z,99412.75
2022-12-20T11:58:18.606Z,99402.53
2022-12-20T12:00:55.555Z,99399.91
2022-12-20T12:03:32.319Z,99397.22
2022-12-20T12:06:05.891Z,99395.41
2022-12-20T12:08:44.798Z,99386.03
2022-12-20T12:11:56.165Z,99381.75
2022-12-20T12:14:24.205Z,99387.66
2022-12-20T12:16:59.894Z,99382.50
2022-12-20T12:19:30.879Z,99372.28
2022-12-20T12:22:04.499Z,99371.28
2022-12-20T12:24:40.393Z,99378.84
2022-12-20T12:27:21.655Z,99366.03
2022-12-20T12:29:50.361Z,99373.59
2022-12-20T12:32:27.136Z,99361.69
2022-12-20T12:35:22.147Z,99359.16
2022-12-20T12:38:00.441Z,99371.81
2022-12-20T12:40:58.759Z,99370.16
2022-12-20T12:43:48.885Z,99365.06
2022-12-20T12:46:21.458Z,99358.25
2022-12-20T12:48:58.894Z,99351.41
2022-12-20T12:51:34.827Z,99342.88
2022-12-20T12:54:17.746Z,99344.50
2022-12-20T12:56:48.937Z,99336.00
2022-12-20T12:59:51.372Z,99333.44
2022-12-20T13:02:52.061Z,99325.75
2022-12-20T13:05:36.581Z,99327.38
2022-12-20T13:08:17.581Z,99321.41
2022-12-20T13:11:13.736Z,99320.50
2022-12-20T13:13:44.060Z,99325.56
2022-12-20T13:16:36.021Z,99312.75
2022-12-20T13:19:15.249Z,99304.19
2022-12-20T13:21:48.358Z,99296.56
2022-12-20T13:24:57.414Z,99310.09
2022-12-20T13:27:39.280Z,99307.47
2022-12-20T13:30:28.690Z,99293.00
2022-12-20T13:33:26.238Z,99301.44
2022-12-20T13:36:05.023Z,99297.91
2022-12-20T13:39:21.492Z,99297.06
2022-12-20T13:41:54.959Z,99291.09
2022-12-20T13:44:42.062Z,99303.72
2022-12-20T13:47:34.124Z,99304.63
2022-12-20T13:50:23.115Z,99301.16
2022-12-20T13:52:54.756Z,99300.28
2022-12-20T13:55:35.052Z,99304.47
2022-12-20T13:58:19.183Z,99296.00
2022-12-20T14:00:48.938Z,99301.03
2022-12-20T14:03:25.180Z,99295.94
2022-12-20T14:06:00.231Z,99292.47
2022-12-20T14:08:33.347Z,99300.94
2022-12-20T14:11:13.068Z,99307.66
2022-12-20T14:13:42.874Z,99307.66
2022-12-20T14:16:17.511Z,99310.13
2022-12-20T14:18:51.518Z,99297.41
2022-12-20T14:21:20.801Z,99310.84
2022-12-20T14:23:53.712Z,99313.41
2022-12-20T14:26:27.536Z,99312.50
2022-12-20T14:28:58.036Z,99309.97
2022-12-20T14:31:30.505Z,99303.97
2022-12-20T14:34:13.448Z,99290.44
2022-12-20T14:36:45.069Z,99286.19
2022-12-20T14:39:28.660Z,99282.72
2022-12-20T14:41:59.831Z,99280.19
2022-12-20T14:44:30.560Z,99280.94
2022-12-20T14:47:01.186Z,99281.75
2022-12-20T14:49:32.961Z,99278.31
2022-12-20T14:52:15.586Z,99282.59
2022-12-20T14:57:46.237Z,99264.63
2022-12-20T15:00:24.664Z,99264.63
2022-12-20T15:03:01.636Z,99258.63
2022-12-20T15:05:51.217Z,99266.25
2022-12-20T15:08:24.224Z,99253.56
2022-12-20T15:11:01.135Z,99244.94
2022-12-20T15:13:33.324Z,99240.56
2022-12-20T15:16:04.706Z,99235.50
2022-12-20T15:18:34.316Z,99235.31
2022-12-20T15:21:08.156Z,99243.78
2022-12-20T15:23:37.226Z,99253.88
2022-12-20T15:26:06.183Z,99259.75
2022-12-20T15:28:35.344Z,99262.22
2022-12-20T15:31:05.062Z,99256.31
2022-12-20T15:33:36.647Z,99258.88
2022-12-20T15:36:07.376Z,99258.88
2022-12-20T15:41:26.564Z,99260.69
2022-12-20T15:43:59.120Z,99255.59
2022-12-20T15:46:28.627Z,99253.88
2022-12-20T15:48:57.449Z,99241.16
2022-12-20T15:51:32.656Z,99249.59
2022-12-20T15:54:04.732Z,99245.34
2022-12-20T15:56:33.394Z,99242.78
2022-12-20T15:59:17.816Z,99245.25
2022-12-20T16:01:51.017Z,99231.69
2022-12-20T16:04:21.589Z,99243.53
2022-12-20T16:06:53.647Z,99233.25
2022-12-20T16:09:25.934Z,99233.25
2022-12-20T16:11:54.837Z,99237.63
2022-12-20T16:14:23.731Z,99236.72
2022-12-20T16:16:52.769Z,99238.44
2022-12-20T16:19:21.421Z,99239.41
2022-12-20T16:21:53.616Z,99235.25
2022-12-20T16:24:22.748Z,99241.25
2022-12-20T16:26:51.548Z,99243.78
2022-12-20T16:29:20.173Z,99241.38
2022-12-20T16:31:48.931Z,99253.28
2022-12-20T16:34:20.667Z,99247.47
2022-12-20T16:36:49.345Z,99247.53
2022-12-20T16:39:19.359Z,99243.38
2022-12-20T16:41:48.048Z,99252.72
2022-12-20T16:44:19.392Z,99262.06
2022-12-20T16:46:48.109Z,99258.78
2022-12-20T16:49:20.292Z,99249.53
2022-12-20T16:51:50.910Z,99247.97
2022-12-20T16:54:23.247Z,99249.63
2022-12-20T16:56:55.545Z,99248.78
2022-12-20T16:59:24.560Z,99253.06
2022-12-20T17:01:56.105Z,99250.59
2022-12-20T17:04:26.887Z,99253.16
2022-12-20T17:06:55.668Z,99236.25
2022-12-20T17:12:16.962Z,99243.06
2022-12-20T17:14:46.331Z,99246.50
2022-12-20T17:17:15.432Z,99238.97
2022-12-20T17:19:44.134Z,99232.25
2022-12-20T17:22:23.573Z,99231.41
2022-12-20T17:24:53.644Z,99241.66
2022-12-20T17:27:22.338Z,99227.31
2022-12-20T17:29:52.250Z,99228.94
2022-12-20T17:32:24.429Z,99224.78
2022-12-20T17:34:55.343Z,99225.69
2022-12-20T17:37:24.732Z,99219.75
2022-12-20T17:39:54.704Z,99224.84
2022-12-20T17:42:28.759Z,99211.31
2022-12-20T17:44:59.679Z,99222.38
2022-12-20T17:47:28.374Z,99216.50
2022-12-20T17:49:57.073Z,99213.97
2022-12-20T17:52:26.642Z,99215.69
2022-12-20T17:54:56.745Z,99208.06
2022-12-20T17:57:25.403Z,99208.06
2022-12-20T17:59:54.024Z,99203.00
2022-12-20T18:02:24.796Z,99207.22
2022-12-20T18:04:53.794Z,99200.44
2022-12-20T18:07:22.501Z,99200.44
2022-12-20T18:09:52.025Z,99198.78
2022-12-20T18:12:22.033Z,99203.03
2022-12-20T18:14:50.944Z,99203.03
2022-12-20T18:17:19.681Z,99202.22
2022-12-20T18:19:48.409Z,99199.69
2022-12-20T18:22:17.041Z,99199.69
2022-12-20T18:24:45.645Z,99200.59
2022-12-20T18:27:15.001Z,99211.69
2022-12-20T18:29:45.027Z,99214.22
2022-12-20T18:32:13.748Z,99209.94
2022-12-20T18:34:43.433Z,99203.22
2022-12-20T18:37:12.217Z,99193.88
2022-12-20T18:39:40.877Z,99187.06
2022-12-20T18:42:09.597Z,99191.34
2022-12-20T18:44:38.246Z,99193.06
2022-12-20T18:47:08.263Z,99202.41
2022-12-20T18:49:37.580Z,99198.22
2022-12-20T18:52:06.617Z,99198.22
2022-12-20T18:54:35.260Z,99192.25
2022-12-20T18:57:06.001Z,99191.50
2022-12-20T18:59:35.448Z,99197.47
2022-12-20T19:02:04.169Z,99184.75
2022-12-20T19:04:34.421Z,99173.72
2022-12-20T19:07:03.034Z,99171.25
2022-12-20T19:09:31.703Z,99168.63
2022-12-20T19:12:00.369Z,99164.38
2022-12-20T19:14:29.093Z,99177.00
2022-12-20T19:16:57.805Z,99165.09
2022-12-20T19:19:26.959Z,99178.66
2022-12-20T19:21:57.028Z,99177.72
2022-12-20T19:24:25.735Z,99182.81
2022-12-20T19:26:54.542Z,99172.63
2022-12-20T19:29:23.393Z,99177.72
2022-12-20T19:31:52.104Z,99173.56
2022-12-20T19:34:20.758Z,99172.72
2022-12-20T19:36:49.503Z,99176.09
2022-12-20T19:39:22.419Z,99173.56
2022-12-20T19:42:21.420Z,99171.81
2022-12-20T19:44:40.197Z,99171.81
2022-12-20T19:47:08.896Z,99176.09
2022-12-20T19:49:37.654Z,99178.66
2022-12-20T19:52:07.510Z,99182.00
2022-12-20T19:54:39.784Z,99177.00
2022-12-20T19:57:08.502Z,99182.81
2022-12-20T19:59:37.190Z,99184.44
2022-12-20T20:02:05.945Z,99187.75
2022-12-20T20:04:34.938Z,99188.47
2022-12-20T20:07:04.706Z,99193.38
2022-12-20T20:09:33.532Z,99201.81
2022-12-20T20:12:03.515Z,99200.84
2022-12-20T20:14:32.220Z,99210.09
2022-12-20T20:17:00.843Z,99203.22
2022-12-20T20:19:29.462Z,99211.56
2022-12-20T20:21:58.089Z,99215.66
2022-12-20T20:24:26.714Z,99219.75
2022-12-20T20:26:55.365Z,99229.84
2022-12-20T20:29:25.424Z,99219.56
2022-12-20T20:31:54.059Z,99223.75
2022-12-20T20:34:22.786Z,99221.03
2022-12-20T20:36:51.430Z,99214.16
2022-12-20T20:39:20.032Z,99220.06
2022-12-20T20:41:48.638Z,99216.53
2022-12-20T20:44:17.310Z,99219.81
2022-12-20T20:46:47.402Z,99220.63
2022-12-20T20:49:16.024Z,99207.03
2022-12-20T20:51:44.712Z,99205.28
2022-12-20T20:54:13.356Z,99195.03
2022-12-20T20:56:42.110Z,99195.88
2022-12-20T20:59:17.190Z,99192.44
2022-12-20T21:01:48.020Z,99190.69
2022-12-20T21:04:16.795Z,99198.22
2022-12-20T21:07:03.905Z,99200.78
2022-12-20T21:09:52.462Z,99188.16
2022-12-20T21:12:39.628Z,99193.94
2022-12-20T21:15:28.055Z,99193.94
2022-12-20T21:18:16.743Z,99182.97
2022-12-20T21:21:09.490Z,99184.63
2022-12-20T21:23:57.399Z,99189.69
2022-12-20T21:26:44.800Z,99182.06
2022-12-20T21:29:32.547Z,99183.72
2022-12-20T21:32:19.871Z,99186.25
2022-12-20T21:35:09.696Z,99181.19
2022-12-20T21:37:57.004Z,99176.91
2022-12-20T21:40:44.200Z,99176.09
2022-12-20T21:43:31.433Z,99173.47
2022-12-20T21:46:19.135Z,99172.63
2022-12-20T21:49:06.162Z,99169.19
2022-12-20T21:51:56.441Z,99168.38
2022-12-20T21:54:44.106Z,99164.09
2022-12-20T21:57:31.439Z,99152.22
2022-12-20T22:00:19.888Z,99169.19
2022-12-20T22:03:07.084Z,99163.19
2022-12-20T22:05:56.741Z,99155.56
2022-12-20T22:08:45.792Z,99155.56
2022-12-20T22:11:32.892Z,99160.66
2022-12-20T22:14:20.052Z,99167.38
2022-12-20T22:17:06.990Z,99160.66
2022-12-20T22:19:53.955Z,99158.91
2022-12-20T22:22:41.134Z,99163.91
2022-12-20T22:25:29.645Z,99159.75
2022-12-20T22:28:16.916Z,99158.03
2022-12-20T22:31:09.482Z,99148.66
2022-12-20T22:33:58.318Z,99151.94
2022-12-20T22:36:45.588Z,99146.84
2022-12-20T22:39:32.536Z,99140.03
2022-12-20T22:42:21.012Z,99145.03
2022-12-20T22:45:10.234Z,99138.16
2022-12-20T22:47:57.224Z,99140.59
2022-12-20T22:50:44.229Z,99136.31
2022-12-20T22:53:33.786Z,99137.97
2022-12-20T22:56:22.355Z,99137.97
2022-12-20T22:59:11.077Z,99137.81
2022-12-20T23:01:58.639Z,99141.06
2022-12-20T23:04:45.859Z,99131.69
2022-12-20T23:07:32.929Z,99134.19
2022-12-20T23:10:34.229Z,99129.09
2022-12-20T23:13:38.961Z,99133.16
2022-12-20T23:16:27.959Z,99128.94
2022-12-20T23:19:15.273Z,99135.66
2022-12-20T23:22:20.277Z,99132.19
2022-12-20T23:25:11.775Z,99134.66
2022-12-20T23:27:58.780Z,99129.56
2022-12-20T23:30:45.771Z,99126.03
2022-12-20T23:33:34.429Z,99127.66
2022-12-20T23:36:21.898Z,99126.75
2022-12-20T23:39:09.326Z,99119.13
2022-12-20T23:41:56.508Z,99126.66
2022-12-20T23:44:43.847Z,99135.09
2022-12-20T23:47:32.083Z,99131.66
2022-12-20T23:50:20.926Z,99134.13
2022-12-20T23:53:07.931Z,99136.66
2022-12-20T23:56:00.843Z,99135.75
2022-12-20T23:58:53.655Z,99144.19
